Terminal Aerodrome Forecast
Issued by NWS

Home | Current Version | Previous Version | Text Only | Print | Product List | Glossary On
Versions: 1 2 3 4 5 6 7 8 9 10 11 12 13 14 15 16 17 18 19 20 21 22 23 24 25 26 27 28 29 30 31 32 33 34 35 36 37
000
FTUS43 KGRB 291700
TAFRHI
TAF
KRHI 291726Z 2918/3018 17007KT 5SM BR OVC003
      TEMPO 2918/2922 1SM -SHRA BR OVC001
     FM292200 18005KT 5SM BR OVC005
     FM300100 17003KT 4SM -SHRA BR SCT003 OVC006
      TEMPO 3003/3007 1SM +TSRA BR BKN003CB
     FM300700 21003KT 1SM BR OVC004 PROB30 3007/3013 1/4SM -SHRA FG
      VV001
     FM301300 30005KT 2SM -SHRA BR OVC004=

USA.gov is the U.S. government's official web portal to all federal, state and local government web resources and services.